sensor_id;sensor_type;location;lat;lon;timestamp;P1;durP1;ratioP1;P2;durP2;ratioP2
59468;SDS011;45277;52.768;18.262;2022-08-21T00:00:16;20.55;;;14.60;;
59468;SDS011;45277;52.768;18.262;2022-08-21T00:02:17;19.52;;;14.77;;
59468;SDS011;45277;52.768;18.262;2022-08-21T00:03:52;21.27;;;14.43;;
59468;SDS011;45277;52.768;18.262;2022-08-21T00:05:24;22.17;;;14.27;;
59468;SDS011;45277;52.768;18.262;2022-08-21T00:07:05;22.77;;;14.20;;
59468;SDS011;45277;52.768;18.262;2022-08-21T00:08:36;18.63;;;13.98;;
59468;SDS011;45277;52.768;18.262;2022-08-21T00:10:08;17.52;;;12.55;;
59468;SDS011;45277;52.768;18.262;2022-08-21T00:11:40;20.73;;;12.00;;
59468;SDS011;45277;52.768;18.262;2022-08-21T00:13:13;16.23;;;11.63;;
59468;SDS011;45277;52.768;18.262;2022-08-21T00:14:47;20.58;;;12.38;;
59468;SDS011;45277;52.768;18.262;2022-08-21T00:16:18;17.95;;;10.90;;
59468;SDS011;45277;52.768;18.262;2022-08-21T00:18:04;16.10;;;11.15;;
59468;SDS011;45277;52.768;18.262;2022-08-21T00:19:43;16.75;;;10.38;;
59468;SDS011;45277;52.768;18.262;2022-08-21T00:21:16;14.60;;;10.30;;
59468;SDS011;45277;52.768;18.262;2022-08-21T00:22:55;14.57;;;10.32;;
59468;SDS011;45277;52.768;18.262;2022-08-21T00:24:26;13.75;;;9.32;;
59468;SDS011;45277;52.768;18.262;2022-08-21T00:25:58;14.95;;;10.15;;
59468;SDS011;45277;52.768;18.262;2022-08-21T00:27:31;13.40;;;9.38;;
59468;SDS011;45277;52.768;18.262;2022-08-21T00:29:03;12.57;;;9.45;;
59468;SDS011;45277;52.768;18.262;2022-08-21T00:30:37;12.52;;;9.43;;
59468;SDS011;45277;52.768;18.262;2022-08-21T00:35:27;13.93;;;9.30;;
59468;SDS011;45277;52.768;18.262;2022-08-21T00:37:02;12.70;;;8.70;;
59468;SDS011;45277;52.768;18.262;2022-08-21T00:38:41;15.48;;;9.65;;
59468;SDS011;45277;52.768;18.262;2022-08-21T00:40:15;13.43;;;9.48;;
59468;SDS011;45277;52.768;18.262;2022-08-21T00:41:49;14.85;;;9.18;;
59468;SDS011;45277;52.768;18.262;2022-08-21T00:43:29;13.80;;;8.88;;
59468;SDS011;45277;52.768;18.262;2022-08-21T00:45:04;13.75;;;8.95;;
59468;SDS011;45277;52.768;18.262;2022-08-21T00:46:38;12.55;;;9.00;;
59468;SDS011;45277;52.768;18.262;2022-08-21T00:48:24;14.20;;;8.05;;
59468;SDS011;45277;52.768;18.262;2022-08-21T00:51:42;12.88;;;8.98;;
59468;SDS011;45277;52.768;18.262;2022-08-21T00:53:19;13.75;;;8.27;;
59468;SDS011;45277;52.768;18.262;2022-08-21T00:54:56;13.15;;;8.85;;
59468;SDS011;45277;52.768;18.262;2022-08-21T00:56:29;11.77;;;8.48;;
59468;SDS011;45277;52.768;18.262;2022-08-21T00:58:02;12.30;;;9.18;;
59468;SDS011;45277;52.768;18.262;2022-08-21T00:59:36;15.95;;;9.02;;
59468;SDS011;45277;52.768;18.262;2022-08-21T01:01:09;15.13;;;7.82;;
59468;SDS011;45277;52.768;18.262;2022-08-21T01:02:41;11.57;;;8.35;;
59468;SDS011;45277;52.768;18.262;2022-08-21T01:04:14;11.88;;;7.85;;
59468;SDS011;45277;52.768;18.262;2022-08-21T01:05:46;15.88;;;9.05;;
59468;SDS011;45277;52.768;18.262;2022-08-21T01:07:19;12.85;;;8.45;;
59468;SDS011;45277;52.768;18.262;2022-08-21T01:08:50;15.40;;;9.10;;
59468;SDS011;45277;52.768;18.262;2022-08-21T01:10:23;11.18;;;8.30;;
59468;SDS011;45277;52.768;18.262;2022-08-21T01:11:56;11.85;;;8.52;;
59468;SDS011;45277;52.768;18.262;2022-08-21T01:13:29;12.75;;;8.70;;
59468;SDS011;45277;52.768;18.262;2022-08-21T01:15:04;15.13;;;8.93;;
59468;SDS011;45277;52.768;18.262;2022-08-21T01:16:38;14.15;;;8.32;;
59468;SDS011;45277;52.768;18.262;2022-08-21T01:18:23;12.98;;;8.80;;
59468;SDS011;45277;52.768;18.262;2022-08-21T01:19:59;13.90;;;9.10;;
59468;SDS011;45277;52.768;18.262;2022-08-21T01:21:33;11.40;;;8.95;;
59468;SDS011;45277;52.768;18.262;2022-08-21T01:23:05;15.85;;;9.43;;
59468;SDS011;45277;52.768;18.262;2022-08-21T01:24:37;13.20;;;9.27;;
59468;SDS011;45277;52.768;18.262;2022-08-21T01:26:09;13.38;;;8.63;;
59468;SDS011;45277;52.768;18.262;2022-08-21T01:27:42;14.18;;;8.50;;
59468;SDS011;45277;52.768;18.262;2022-08-21T01:29:28;13.55;;;8.68;;
59468;SDS011;45277;52.768;18.262;2022-08-21T01:31:07;15.18;;;9.23;;
59468;SDS011;45277;52.768;18.262;2022-08-21T01:32:42;12.13;;;9.43;;
59468;SDS011;45277;52.768;18.262;2022-08-21T01:34:14;16.67;;;9.88;;
59468;SDS011;45277;52.768;18.262;2022-08-21T01:35:47;17.73;;;11.07;;
59468;SDS011;45277;52.768;18.262;2022-08-21T01:37:19;16.05;;;11.50;;
59468;SDS011;45277;52.768;18.262;2022-08-21T01:38:52;18.40;;;11.15;;
59468;SDS011;45277;52.768;18.262;2022-08-21T01:40:30;17.20;;;13.43;;
59468;SDS011;45277;52.768;18.262;2022-08-21T01:42:04;24.20;;;14.07;;
59468;SDS011;45277;52.768;18.262;2022-08-21T01:43:38;21.45;;;15.90;;
59468;SDS011;45277;52.768;18.262;2022-08-21T01:45:16;22.35;;;16.17;;
59468;SDS011;45277;52.768;18.262;2022-08-21T01:46:48;22.70;;;15.57;;
59468;SDS011;45277;52.768;18.262;2022-08-21T01:48:22;23.58;;;16.27;;
59468;SDS011;45277;52.768;18.262;2022-08-21T01:49:54;22.85;;;17.08;;
59468;SDS011;45277;52.768;18.262;2022-08-21T01:51:27;26.45;;;17.90;;
59468;SDS011;45277;52.768;18.262;2022-08-21T01:52:58;25.65;;;17.65;;
59468;SDS011;45277;52.768;18.262;2022-08-21T01:54:31;26.58;;;18.92;;
59468;SDS011;45277;52.768;18.262;2022-08-21T01:56:05;27.55;;;18.08;;
59468;SDS011;45277;52.768;18.262;2022-08-21T01:57:39;25.63;;;16.85;;
59468;SDS011;45277;52.768;18.262;2022-08-21T01:59:11;28.75;;;17.98;;
59468;SDS011;45277;52.768;18.262;2022-08-21T02:00:44;24.35;;;16.42;;
59468;SDS011;45277;52.768;18.262;2022-08-21T02:02:17;22.23;;;15.93;;
59468;SDS011;45277;52.768;18.262;2022-08-21T02:03:50;23.55;;;16.55;;
59468;SDS011;45277;52.768;18.262;2022-08-21T02:05:28;23.02;;;15.43;;
59468;SDS011;45277;52.768;18.262;2022-08-21T02:07:06;23.23;;;15.18;;
59468;SDS011;45277;52.768;18.262;2022-08-21T02:08:38;22.45;;;15.07;;
59468;SDS011;45277;52.768;18.262;2022-08-21T02:10:10;19.13;;;14.55;;
59468;SDS011;45277;52.768;18.262;2022-08-21T02:11:43;19.25;;;14.40;;
59468;SDS011;45277;52.768;18.262;2022-08-21T02:13:16;21.23;;;14.60;;
59468;SDS011;45277;52.768;18.262;2022-08-21T02:14:48;19.67;;;14.15;;
59468;SDS011;45277;52.768;18.262;2022-08-21T02:16:20;23.42;;;14.57;;
59468;SDS011;45277;52.768;18.262;2022-08-21T02:18:00;22.55;;;13.88;;
59468;SDS011;45277;52.768;18.262;2022-08-21T02:19:33;21.23;;;13.82;;
59468;SDS011;45277;52.768;18.262;2022-08-21T02:21:05;20.63;;;13.75;;
59468;SDS011;45277;52.768;18.262;2022-08-21T02:22:37;21.05;;;14.00;;
59468;SDS011;45277;52.768;18.262;2022-08-21T02:24:11;19.92;;;14.10;;
59468;SDS011;45277;52.768;18.262;2022-08-21T02:25:43;21.23;;;13.52;;
59468;SDS011;45277;52.768;18.262;2022-08-21T02:27:16;20.52;;;13.02;;
59468;SDS011;45277;52.768;18.262;2022-08-21T02:28:48;21.88;;;13.55;;
59468;SDS011;45277;52.768;18.262;2022-08-21T02:30:23;18.90;;;13.73;;
59468;SDS011;45277;52.768;18.262;2022-08-21T02:31:58;19.33;;;12.68;;
59468;SDS011;45277;52.768;18.262;2022-08-21T02:33:30;18.88;;;12.43;;
59468;SDS011;45277;52.768;18.262;2022-08-21T02:35:08;18.75;;;12.68;;
59468;SDS011;45277;52.768;18.262;2022-08-21T02:36:40;18.85;;;13.25;;
59468;SDS011;45277;52.768;18.262;2022-08-21T02:38:14;20.55;;;13.20;;
59468;SDS011;45277;52.768;18.262;2022-08-21T02:39:49;18.90;;;14.07;;
59468;SDS011;45277;52.768;18.262;2022-08-21T02:41:22;17.23;;;12.73;;
59468;SDS011;45277;52.768;18.262;2022-08-21T02:42:55;20.10;;;13.63;;
59468;SDS011;45277;52.768;18.262;2022-08-21T02:44:29;18.58;;;12.35;;
59468;SDS011;45277;52.768;18.262;2022-08-21T02:46:00;22.10;;;13.52;;
59468;SDS011;45277;52.768;18.262;2022-08-21T02:47:34;21.08;;;14.07;;
59468;SDS011;45277;52.768;18.262;2022-08-21T02:49:08;17.83;;;13.13;;
59468;SDS011;45277;52.768;18.262;2022-08-21T02:50:43;19.83;;;14.65;;
59468;SDS011;45277;52.768;18.262;2022-08-21T02:52:23;18.38;;;13.70;;
59468;SDS011;45277;52.768;18.262;2022-08-21T02:53:57;20.50;;;14.75;;
59468;SDS011;45277;52.768;18.262;2022-08-21T02:55:29;21.90;;;14.73;;
59468;SDS011;45277;52.768;18.262;2022-08-21T02:57:02;21.90;;;14.48;;
59468;SDS011;45277;52.768;18.262;2022-08-21T02:58:37;21.88;;;14.95;;
59468;SDS011;45277;52.768;18.262;2022-08-21T03:00:13;23.42;;;15.75;;
59468;SDS011;45277;52.768;18.262;2022-08-21T03:01:47;18.42;;;13.77;;
59468;SDS011;45277;52.768;18.262;2022-08-21T03:03:20;23.38;;;14.48;;
59468;SDS011;45277;52.768;18.262;2022-08-21T03:04:52;21.75;;;14.68;;
59468;SDS011;45277;52.768;18.262;2022-08-21T03:06:24;22.17;;;14.77;;
59468;SDS011;45277;52.768;18.262;2022-08-21T03:07:58;21.42;;;13.82;;
59468;SDS011;45277;52.768;18.262;2022-08-21T03:09:32;24.63;;;14.88;;
59468;SDS011;45277;52.768;18.262;2022-08-21T03:11:03;22.67;;;14.55;;
59468;SDS011;45277;52.768;18.262;2022-08-21T03:12:37;20.92;;;14.30;;
59468;SDS011;45277;52.768;18.262;2022-08-21T03:14:09;18.50;;;13.38;;
59468;SDS011;45277;52.768;18.262;2022-08-21T03:15:42;21.35;;;14.88;;
59468;SDS011;45277;52.768;18.262;2022-08-21T03:17:14;21.23;;;14.27;;
59468;SDS011;45277;52.768;18.262;2022-08-21T03:18:47;21.85;;;14.57;;
59468;SDS011;45277;52.768;18.262;2022-08-21T03:20:19;18.95;;;13.90;;
59468;SDS011;45277;52.768;18.262;2022-08-21T03:21:53;21.60;;;14.00;;
59468;SDS011;45277;52.768;18.262;2022-08-21T03:23:25;22.55;;;13.88;;
59468;SDS011;45277;52.768;18.262;2022-08-21T03:24:59;19.92;;;13.40;;
59468;SDS011;45277;52.768;18.262;2022-08-21T03:26:30;21.75;;;14.05;;
59468;SDS011;45277;52.768;18.262;2022-08-21T03:28:05;22.65;;;13.43;;
59468;SDS011;45277;52.768;18.262;2022-08-21T03:29:43;20.35;;;13.93;;
59468;SDS011;45277;52.768;18.262;2022-08-21T03:31:14;23.98;;;14.57;;
59468;SDS011;45277;52.768;18.262;2022-08-21T03:32:48;18.52;;;14.02;;
59468;SDS011;45277;52.768;18.262;2022-08-21T03:34:27;26.10;;;14.52;;
59468;SDS011;45277;52.768;18.262;2022-08-21T03:36:00;20.13;;;13.77;;
59468;SDS011;45277;52.768;18.262;2022-08-21T03:37:34;23.63;;;13.93;;
59468;SDS011;45277;52.768;18.262;2022-08-21T03:39:07;25.70;;;15.52;;
59468;SDS011;45277;52.768;18.262;2022-08-21T03:40:41;20.00;;;13.38;;
59468;SDS011;45277;52.768;18.262;2022-08-21T03:42:13;18.70;;;13.88;;
59468;SDS011;45277;52.768;18.262;2022-08-21T03:43:47;20.13;;;12.40;;
59468;SDS011;45277;52.768;18.262;2022-08-21T03:45:21;16.85;;;12.55;;
59468;SDS011;45277;52.768;18.262;2022-08-21T03:46:54;19.17;;;12.70;;
59468;SDS011;45277;52.768;18.262;2022-08-21T03:48:26;19.80;;;13.52;;
59468;SDS011;45277;52.768;18.262;2022-08-21T03:49:58;20.42;;;13.77;;
59468;SDS011;45277;52.768;18.262;2022-08-21T03:51:33;20.35;;;14.20;;
59468;SDS011;45277;52.768;18.262;2022-08-21T03:53:08;21.30;;;14.02;;
59468;SDS011;45277;52.768;18.262;2022-08-21T03:54:40;20.13;;;13.27;;
59468;SDS011;45277;52.768;18.262;2022-08-21T03:56:12;20.02;;;13.93;;
59468;SDS011;45277;52.768;18.262;2022-08-21T03:57:43;20.08;;;13.18;;
59468;SDS011;45277;52.768;18.262;2022-08-21T03:59:17;20.13;;;13.68;;
59468;SDS011;45277;52.768;18.262;2022-08-21T04:00:50;19.55;;;12.90;;
59468;SDS011;45277;52.768;18.262;2022-08-21T04:02:23;20.38;;;12.68;;
59468;SDS011;45277;52.768;18.262;2022-08-21T04:03:55;21.50;;;12.52;;
59468;SDS011;45277;52.768;18.262;2022-08-21T04:05:29;20.35;;;14.23;;
59468;SDS011;45277;52.768;18.262;2022-08-21T04:07:02;21.38;;;12.82;;
59468;SDS011;45277;52.768;18.262;2022-08-21T04:08:34;18.30;;;12.85;;
59468;SDS011;45277;52.768;18.262;2022-08-21T04:10:06;17.33;;;12.27;;
59468;SDS011;45277;52.768;18.262;2022-08-21T04:11:39;18.52;;;13.55;;
59468;SDS011;45277;52.768;18.262;2022-08-21T04:13:11;17.85;;;13.20;;
59468;SDS011;45277;52.768;18.262;2022-08-21T04:14:43;19.60;;;13.82;;
59468;SDS011;45277;52.768;18.262;2022-08-21T04:16:14;19.02;;;12.85;;
59468;SDS011;45277;52.768;18.262;2022-08-21T04:17:46;16.98;;;11.98;;
59468;SDS011;45277;52.768;18.262;2022-08-21T04:19:18;18.17;;;11.82;;
59468;SDS011;45277;52.768;18.262;2022-08-21T04:20:51;14.93;;;10.60;;
59468;SDS011;45277;52.768;18.262;2022-08-21T04:22:26;16.95;;;10.55;;
59468;SDS011;45277;52.768;18.262;2022-08-21T04:24:00;16.08;;;11.02;;
59468;SDS011;45277;52.768;18.262;2022-08-21T04:25:33;16.38;;;11.07;;
59468;SDS011;45277;52.768;18.262;2022-08-21T04:27:05;16.88;;;11.32;;
59468;SDS011;45277;52.768;18.262;2022-08-21T04:28:36;15.52;;;10.50;;
59468;SDS011;45277;52.768;18.262;2022-08-21T04:30:09;16.67;;;11.25;;
59468;SDS011;45277;52.768;18.262;2022-08-21T04:31:48;18.40;;;11.98;;
59468;SDS011;45277;52.768;18.262;2022-08-21T04:33:28;18.45;;;12.05;;
59468;SDS011;45277;52.768;18.262;2022-08-21T04:35:01;18.48;;;11.93;;
59468;SDS011;45277;52.768;18.262;2022-08-21T04:36:36;17.45;;;12.18;;
59468;SDS011;45277;52.768;18.262;2022-08-21T04:38:07;17.23;;;11.60;;
59468;SDS011;45277;52.768;18.262;2022-08-21T04:39:40;18.55;;;12.02;;
59468;SDS011;45277;52.768;18.262;2022-08-21T04:41:12;18.20;;;12.68;;
59468;SDS011;45277;52.768;18.262;2022-08-21T04:42:46;18.67;;;13.43;;
59468;SDS011;45277;52.768;18.262;2022-08-21T04:44:30;17.88;;;12.05;;
59468;SDS011;45277;52.768;18.262;2022-08-21T04:46:02;18.60;;;11.93;;
59468;SDS011;45277;52.768;18.262;2022-08-21T04:47:34;18.98;;;11.88;;
59468;SDS011;45277;52.768;18.262;2022-08-21T04:49:06;17.83;;;12.35;;
59468;SDS011;45277;52.768;18.262;2022-08-21T04:50:41;18.75;;;12.80;;
59468;SDS011;45277;52.768;18.262;2022-08-21T04:52:19;20.05;;;13.35;;
59468;SDS011;45277;52.768;18.262;2022-08-21T04:54:00;24.35;;;13.00;;
59468;SDS011;45277;52.768;18.262;2022-08-21T04:55:42;17.40;;;12.63;;
59468;SDS011;45277;52.768;18.262;2022-08-21T04:57:14;18.30;;;12.65;;
59468;SDS011;45277;52.768;18.262;2022-08-21T04:58:47;18.33;;;12.82;;
59468;SDS011;45277;52.768;18.262;2022-08-21T05:00:22;18.90;;;12.00;;
59468;SDS011;45277;52.768;18.262;2022-08-21T05:01:55;18.20;;;12.90;;
59468;SDS011;45277;52.768;18.262;2022-08-21T05:03:34;20.42;;;14.35;;
59468;SDS011;45277;52.768;18.262;2022-08-21T05:05:08;22.00;;;13.20;;
59468;SDS011;45277;52.768;18.262;2022-08-21T05:06:42;18.23;;;12.95;;
59468;SDS011;45277;52.768;18.262;2022-08-21T05:08:17;21.38;;;13.60;;
59468;SDS011;45277;52.768;18.262;2022-08-21T05:09:53;18.50;;;13.13;;
59468;SDS011;45277;52.768;18.262;2022-08-21T05:11:25;25.90;;;15.35;;
59468;SDS011;45277;52.768;18.262;2022-08-21T05:12:58;22.20;;;14.40;;
59468;SDS011;45277;52.768;18.262;2022-08-21T05:14:32;21.40;;;15.18;;
59468;SDS011;45277;52.768;18.262;2022-08-21T05:16:06;24.48;;;15.70;;
59468;SDS011;45277;52.768;18.262;2022-08-21T05:17:38;18.77;;;13.60;;
59468;SDS011;45277;52.768;18.262;2022-08-21T05:19:10;19.83;;;12.63;;
59468;SDS011;45277;52.768;18.262;2022-08-21T05:20:44;18.98;;;13.90;;
59468;SDS011;45277;52.768;18.262;2022-08-21T05:22:19;23.13;;;15.50;;
59468;SDS011;45277;52.768;18.262;2022-08-21T05:23:52;23.60;;;15.02;;
59468;SDS011;45277;52.768;18.262;2022-08-21T05:25:24;23.40;;;16.20;;
59468;SDS011;45277;52.768;18.262;2022-08-21T05:26:56;27.75;;;16.00;;
59468;SDS011;45277;52.768;18.262;2022-08-21T05:28:29;25.30;;;16.20;;
59468;SDS011;45277;52.768;18.262;2022-08-21T05:30:04;23.52;;;16.52;;
59468;SDS011;45277;52.768;18.262;2022-08-21T05:31:38;22.27;;;16.23;;
59468;SDS011;45277;52.768;18.262;2022-08-21T05:33:11;24.10;;;15.70;;
59468;SDS011;45277;52.768;18.262;2022-08-21T05:34:43;25.73;;;17.08;;
59468;SDS011;45277;52.768;18.262;2022-08-21T05:36:14;27.05;;;17.42;;
59468;SDS011;45277;52.768;18.262;2022-08-21T05:37:48;24.95;;;16.85;;
59468;SDS011;45277;52.768;18.262;2022-08-21T05:39:26;26.08;;;17.48;;
59468;SDS011;45277;52.768;18.262;2022-08-21T05:40:59;24.38;;;16.35;;
59468;SDS011;45277;52.768;18.262;2022-08-21T05:42:31;29.80;;;18.55;;
59468;SDS011;45277;52.768;18.262;2022-08-21T05:44:03;28.15;;;17.02;;
59468;SDS011;45277;52.768;18.262;2022-08-21T05:45:35;24.35;;;16.58;;
59468;SDS011;45277;52.768;18.262;2022-08-21T05:47:08;26.67;;;18.58;;
59468;SDS011;45277;52.768;18.262;2022-08-21T05:48:40;29.02;;;17.70;;
59468;SDS011;45277;52.768;18.262;2022-08-21T05:50:12;23.25;;;16.63;;
59468;SDS011;45277;52.768;18.262;2022-08-21T05:51:46;22.33;;;14.48;;
59468;SDS011;45277;52.768;18.262;2022-08-21T05:53:25;25.35;;;16.17;;
59468;SDS011;45277;52.768;18.262;2022-08-21T05:54:58;23.58;;;15.57;;
59468;SDS011;45277;52.768;18.262;2022-08-21T05:56:29;22.30;;;13.88;;
59468;SDS011;45277;52.768;18.262;2022-08-21T05:58:02;23.23;;;14.75;;
59468;SDS011;45277;52.768;18.262;2022-08-21T05:59:40;21.92;;;14.45;;
59468;SDS011;45277;52.768;18.262;2022-08-21T06:01:12;21.50;;;14.55;;
59468;SDS011;45277;52.768;18.262;2022-08-21T06:02:45;21.83;;;14.52;;
59468;SDS011;45277;52.768;18.262;2022-08-21T06:04:19;20.83;;;13.93;;
59468;SDS011;45277;52.768;18.262;2022-08-21T06:05:52;20.92;;;12.98;;
59468;SDS011;45277;52.768;18.262;2022-08-21T06:07:29;19.08;;;12.75;;
59468;SDS011;45277;52.768;18.262;2022-08-21T06:09:02;15.35;;;10.13;;
59468;SDS011;45277;52.768;18.262;2022-08-21T06:10:37;18.02;;;11.50;;
59468;SDS011;45277;52.768;18.262;2022-08-21T06:12:10;22.02;;;12.50;;
59468;SDS011;45277;52.768;18.262;2022-08-21T06:13:45;15.38;;;11.13;;
59468;SDS011;45277;52.768;18.262;2022-08-21T06:15:18;19.83;;;11.65;;
59468;SDS011;45277;52.768;18.262;2022-08-21T06:16:50;15.82;;;10.60;;
59468;SDS011;45277;52.768;18.262;2022-08-21T06:18:22;18.80;;;13.05;;
59468;SDS011;45277;52.768;18.262;2022-08-21T06:19:54;20.65;;;13.60;;
59468;SDS011;45277;52.768;18.262;2022-08-21T06:21:25;18.20;;;12.90;;
59468;SDS011;45277;52.768;18.262;2022-08-21T06:22:59;20.00;;;13.32;;
59468;SDS011;45277;52.768;18.262;2022-08-21T06:24:31;18.20;;;13.57;;
59468;SDS011;45277;52.768;18.262;2022-08-21T06:26:04;19.63;;;12.68;;
59468;SDS011;45277;52.768;18.262;2022-08-21T06:27:36;19.65;;;12.57;;
59468;SDS011;45277;52.768;18.262;2022-08-21T06:29:08;19.08;;;12.63;;
59468;SDS011;45277;52.768;18.262;2022-08-21T06:30:43;17.00;;;10.13;;
59468;SDS011;45277;52.768;18.262;2022-08-21T06:32:15;16.65;;;10.68;;
59468;SDS011;45277;52.768;18.262;2022-08-21T06:33:55;14.23;;;10.88;;
59468;SDS011;45277;52.768;18.262;2022-08-21T06:35:34;15.32;;;11.15;;
59468;SDS011;45277;52.768;18.262;2022-08-21T06:37:12;12.98;;;10.07;;
59468;SDS011;45277;52.768;18.262;2022-08-21T06:38:49;16.73;;;11.68;;
59468;SDS011;45277;52.768;18.262;2022-08-21T06:40:21;14.18;;;10.77;;
59468;SDS011;45277;52.768;18.262;2022-08-21T06:41:53;17.83;;;10.38;;
59468;SDS011;45277;52.768;18.262;2022-08-21T06:43:25;17.23;;;9.73;;
59468;SDS011;45277;52.768;18.262;2022-08-21T06:44:57;13.07;;;9.77;;
59468;SDS011;45277;52.768;18.262;2022-08-21T06:46:30;13.50;;;10.15;;
59468;SDS011;45277;52.768;18.262;2022-08-21T06:48:03;17.25;;;10.30;;
59468;SDS011;45277;52.768;18.262;2022-08-21T06:49:35;16.05;;;10.88;;
59468;SDS011;45277;52.768;18.262;2022-08-21T06:51:08;15.35;;;10.32;;
59468;SDS011;45277;52.768;18.262;2022-08-21T06:52:41;16.88;;;10.82;;
59468;SDS011;45277;52.768;18.262;2022-08-21T06:54:13;14.00;;;10.00;;
59468;SDS011;45277;52.768;18.262;2022-08-21T06:55:44;15.57;;;11.65;;
59468;SDS011;45277;52.768;18.262;2022-08-21T06:57:16;14.35;;;11.13;;
59468;SDS011;45277;52.768;18.262;2022-08-21T06:58:51;13.73;;;10.02;;
59468;SDS011;45277;52.768;18.262;2022-08-21T07:00:24;15.85;;;10.32;;
59468;SDS011;45277;52.768;18.262;2022-08-21T07:01:57;13.13;;;9.75;;
59468;SDS011;45277;52.768;18.262;2022-08-21T07:03:32;11.55;;;10.05;;
59468;SDS011;45277;52.768;18.262;2022-08-21T07:05:08;17.20;;;9.85;;
59468;SDS011;45277;52.768;18.262;2022-08-21T07:06:40;18.77;;;10.07;;
59468;SDS011;45277;52.768;18.262;2022-08-21T07:08:12;12.73;;;9.13;;
59468;SDS011;45277;52.768;18.262;2022-08-21T07:09:50;14.15;;;9.27;;
59468;SDS011;45277;52.768;18.262;2022-08-21T07:11:22;16.73;;;9.30;;
59468;SDS011;45277;52.768;18.262;2022-08-21T07:12:57;12.38;;;9.25;;
59468;SDS011;45277;52.768;18.262;2022-08-21T07:14:29;16.15;;;9.95;;
59468;SDS011;45277;52.768;18.262;2022-08-21T07:16:01;13.13;;;10.40;;
59468;SDS011;45277;52.768;18.262;2022-08-21T07:17:38;15.93;;;10.77;;
59468;SDS011;45277;52.768;18.262;2022-08-21T07:19:10;16.90;;;11.05;;
59468;SDS011;45277;52.768;18.262;2022-08-21T07:20:44;18.70;;;11.85;;
59468;SDS011;45277;52.768;18.262;2022-08-21T07:22:25;15.10;;;11.25;;
59468;SDS011;45277;52.768;18.262;2022-08-21T07:23:59;15.20;;;10.40;;
59468;SDS011;45277;52.768;18.262;2022-08-21T07:25:31;16.55;;;10.98;;
59468;SDS011;45277;52.768;18.262;2022-08-21T07:27:03;16.20;;;10.75;;
59468;SDS011;45277;52.768;18.262;2022-08-21T07:28:34;13.32;;;8.85;;
59468;SDS011;45277;52.768;18.262;2022-08-21T07:30:06;18.35;;;11.32;;
59468;SDS011;45277;52.768;18.262;2022-08-21T07:31:39;18.92;;;11.25;;
59468;SDS011;45277;52.768;18.262;2022-08-21T07:33:12;19.27;;;12.25;;
59468;SDS011;45277;52.768;18.262;2022-08-21T07:35:00;22.45;;;12.40;;
59468;SDS011;45277;52.768;18.262;2022-08-21T07:36:34;20.95;;;11.80;;
59468;SDS011;45277;52.768;18.262;2022-08-21T07:38:14;18.60;;;11.73;;
59468;SDS011;45277;52.768;18.262;2022-08-21T07:39:46;17.45;;;11.73;;
59468;SDS011;45277;52.768;18.262;2022-08-21T07:41:21;19.33;;;12.80;;
59468;SDS011;45277;52.768;18.262;2022-08-21T07:42:56;22.10;;;12.95;;
59468;SDS011;45277;52.768;18.262;2022-08-21T07:44:31;21.02;;;11.00;;
59468;SDS011;45277;52.768;18.262;2022-08-21T07:46:05;16.92;;;10.88;;
59468;SDS011;45277;52.768;18.262;2022-08-21T07:47:38;17.00;;;8.50;;
59468;SDS011;45277;52.768;18.262;2022-08-21T07:49:12;15.80;;;9.90;;
59468;SDS011;45277;52.768;18.262;2022-08-21T07:50:46;15.48;;;9.30;;
59468;SDS011;45277;52.768;18.262;2022-08-21T07:52:18;14.02;;;9.82;;
59468;SDS011;45277;52.768;18.262;2022-08-21T07:53:58;16.25;;;8.90;;
59468;SDS011;45277;52.768;18.262;2022-08-21T07:55:43;12.68;;;7.38;;
59468;SDS011;45277;52.768;18.262;2022-08-21T07:57:21;12.65;;;7.88;;
59468;SDS011;45277;52.768;18.262;2022-08-21T07:59:01;13.43;;;8.05;;
59468;SDS011;45277;52.768;18.262;2022-08-21T08:02:24;13.60;;;8.00;;
59468;SDS011;45277;52.768;18.262;2022-08-21T08:03:59;13.68;;;8.63;;
59468;SDS011;45277;52.768;18.262;2022-08-21T08:05:37;14.38;;;8.80;;
59468;SDS011;45277;52.768;18.262;2022-08-21T08:07:17;15.00;;;8.60;;
59468;SDS011;45277;52.768;18.262;2022-08-21T08:08:50;15.48;;;9.00;;
59468;SDS011;45277;52.768;18.262;2022-08-21T08:10:38;14.00;;;8.27;;
59468;SDS011;45277;52.768;18.262;2022-08-21T08:12:11;14.23;;;9.20;;
59468;SDS011;45277;52.768;18.262;2022-08-21T08:13:45;17.15;;;8.65;;
59468;SDS011;45277;52.768;18.262;2022-08-21T08:15:25;17.90;;;10.57;;
59468;SDS011;45277;52.768;18.262;2022-08-21T08:17:00;16.25;;;10.15;;
59468;SDS011;45277;52.768;18.262;2022-08-21T08:18:37;15.18;;;10.45;;
59468;SDS011;45277;52.768;18.262;2022-08-21T08:20:15;18.95;;;10.73;;
59468;SDS011;45277;52.768;18.262;2022-08-21T08:21:49;16.92;;;10.70;;
59468;SDS011;45277;52.768;18.262;2022-08-21T08:25:15;18.58;;;9.82;;
59468;SDS011;45277;52.768;18.262;2022-08-21T08:26:53;19.95;;;11.02;;
59468;SDS011;45277;52.768;18.262;2022-08-21T08:28:34;17.63;;;10.13;;
59468;SDS011;45277;52.768;18.262;2022-08-21T08:30:07;20.95;;;10.82;;
59468;SDS011;45277;52.768;18.262;2022-08-21T08:31:39;17.73;;;10.95;;
59468;SDS011;45277;52.768;18.262;2022-08-21T08:33:11;17.27;;;10.60;;
59468;SDS011;45277;52.768;18.262;2022-08-21T08:34:44;14.88;;;9.65;;
59468;SDS011;45277;52.768;18.262;2022-08-21T08:36:19;15.43;;;8.90;;
59468;SDS011;45277;52.768;18.262;2022-08-21T08:37:51;17.17;;;10.00;;
59468;SDS011;45277;52.768;18.262;2022-08-21T08:42:53;16.90;;;10.38;;
59468;SDS011;45277;52.768;18.262;2022-08-21T08:44:40;15.98;;;9.32;;
59468;SDS011;45277;52.768;18.262;2022-08-21T08:48:14;14.52;;;8.98;;
59468;SDS011;45277;52.768;18.262;2022-08-21T08:50:06;13.85;;;8.00;;
59468;SDS011;45277;52.768;18.262;2022-08-21T08:54:09;12.75;;;8.48;;
59468;SDS011;45277;52.768;18.262;2022-08-21T08:55:48;13.18;;;8.65;;
59468;SDS011;45277;52.768;18.262;2022-08-21T08:57:27;12.98;;;9.10;;
59468;SDS011;45277;52.768;18.262;2022-08-21T08:59:15;13.40;;;9.13;;
59468;SDS011;45277;52.768;18.262;2022-08-21T09:01:01;13.38;;;8.25;;
59468;SDS011;45277;52.768;18.262;2022-08-21T09:02:40;18.30;;;9.07;;
59468;SDS011;45277;52.768;18.262;2022-08-21T09:04:17;13.45;;;7.95;;
59468;SDS011;45277;52.768;18.262;2022-08-21T09:11:52;17.45;;;11.70;;
59468;SDS011;45277;52.768;18.262;2022-08-21T09:17:11;23.80;;;15.18;;
59468;SDS011;45277;52.768;18.262;2022-08-21T09:26:11;25.88;;;16.25;;
59468;SDS011;45277;52.768;18.262;2022-08-21T09:27:45;23.88;;;16.65;;
59468;SDS011;45277;52.768;18.262;2022-08-21T09:29:25;19.85;;;13.25;;
59468;SDS011;45277;52.768;18.262;2022-08-21T09:31:16;20.52;;;13.38;;
59468;SDS011;45277;52.768;18.262;2022-08-21T09:33:06;27.52;;;14.90;;
59468;SDS011;45277;52.768;18.262;2022-08-21T09:34:41;23.92;;;13.57;;
59468;SDS011;45277;52.768;18.262;2022-08-21T09:36:21;24.67;;;14.13;;
59468;SDS011;45277;52.768;18.262;2022-08-21T09:38:06;24.02;;;13.57;;
59468;SDS011;45277;52.768;18.262;2022-08-21T09:39:47;16.95;;;10.68;;